Time;durP1;ratioP1;P1;durP2;ratioP2;P2;SDS_P1;SDS_P2;PMS_P1;PMS_P2;Temp;Humidity;BMP_temperature;BMP_pressure;BME280_temperature;BME280_humidity;BME280_pressure;Samples;Min_cycle;Max_cycle;Signal;HPM_P1;HPM_P2
2024/01/09 00:01:18;;;;;;;3.73;2.77;;;;;;;;;;5013083;28;20250;-86
2024/01/09 00:03:48;;;;;;;3.57;3.03;;;;;;;;;;5006483;28;20209;-86
2024/01/09 00:06:14;;;;;;;3.77;3.07;;;;;;;;;;4992037;28;20240;-86
2024/01/09 00:08:40;;;;;;;2.70;2.50;;;;;;;;;;5008930;28;20233;-86
2024/01/09 00:11:05;;;;;;;3.63;2.60;;;;;;;;;;5029767;28;20224;-85
2024/01/09 00:13:33;;;;;;;4.07;2.67;;;;;;;;;;5011751;28;20260;-85
2024/01/09 00:15:59;;;;;;;2.87;2.67;;;;;;;;;;5007132;28;20773;-86
2024/01/09 00:18:24;;;;;;;2.70;2.50;;;;;;;;;;5011929;28;20229;-86
2024/01/09 00:20:50;;;;;;;3.00;2.70;;;;;;;;;;5003056;28;20219;-86
2024/01/09 00:23:16;;;;;;;2.60;2.40;;;;;;;;;;5018077;28;20216;-86
2024/01/09 00:25:41;;;;;;;3.07;2.67;;;;;;;;;;4999028;28;20225;-86
2024/01/09 00:28:07;;;;;;;4.23;3.00;;;;;;;;;;5002836;28;20563;-87
2024/01/09 00:30:32;;;;;;;3.43;2.70;;;;;;;;;;5002433;28;20246;-86
2024/01/09 00:32:58;;;;;;;3.30;3.00;;;;;;;;;;5004451;28;20215;-86
2024/01/09 00:35:23;;;;;;;3.10;2.80;;;;;;;;;;4998331;28;20913;-86
2024/01/09 00:37:51;;;;;;;4.30;2.90;;;;;;;;;;5005096;28;20211;-87
2024/01/09 00:40:17;;;;;;;3.17;2.87;;;;;;;;;;4999424;28;20287;-86
2024/01/09 00:42:47;;;;;;;2.90;2.60;;;;;;;;;;4995034;28;20207;-88
2024/01/09 00:45:13;;;;;;;2.90;2.60;;;;;;;;;;5018552;28;20236;-87
2024/01/09 00:47:38;;;;;;;3.03;2.60;;;;;;;;;;4992377;28;20235;-87
2024/01/09 00:50:05;;;;;;;3.50;2.53;;;;;;;;;;4992714;28;20296;-87
2024/01/09 00:52:30;;;;;;;3.13;2.40;;;;;;;;;;5002889;28;20225;-86
2024/01/09 00:54:58;;;;;;;3.20;2.50;;;;;;;;;;4988211;28;20220;-87
2024/01/09 00:57:23;;;;;;;3.47;2.80;;;;;;;;;;5019500;28;20282;-86
2024/01/09 00:59:49;;;;;;;3.13;2.53;;;;;;;;;;4989595;28;20243;-88
2024/01/09 01:02:14;;;;;;;2.77;2.57;;;;;;;;;;4999126;28;20221;-87
2024/01/09 01:04:40;;;;;;;2.77;2.43;;;;;;;;;;4997931;28;20299;-87
2024/01/09 01:07:06;;;;;;;3.20;2.83;;;;;;;;;;5022076;28;20307;-87
2024/01/09 01:09:31;;;;;;;4.50;3.00;;;;;;;;;;4994700;28;20221;-87
2024/01/09 01:11:59;;;;;;;4.57;2.87;;;;;;;;;;4985280;28;20258;-87
2024/01/09 01:14:27;;;;;;;2.80;2.27;;;;;;;;;;5015187;28;20635;-87
2024/01/09 01:16:55;;;;;;;2.67;2.43;;;;;;;;;;5001092;28;20228;-87
2024/01/09 01:19:20;;;;;;;2.93;2.70;;;;;;;;;;4977458;28;20238;-87
2024/01/09 01:21:46;;;;;;;2.53;2.27;;;;;;;;;;4980675;28;20696;-87
2024/01/09 01:24:16;;;;;;;2.90;2.70;;;;;;;;;;4994581;28;20235;-87
2024/01/09 01:26:41;;;;;;;3.20;2.40;;;;;;;;;;4994077;28;20260;-87
2024/01/09 01:29:07;;;;;;;3.13;2.60;;;;;;;;;;4991373;28;20224;-87
2024/01/09 01:31:32;;;;;;;2.63;2.40;;;;;;;;;;4998249;28;20219;-87
2024/01/09 01:33:58;;;;;;;2.77;2.57;;;;;;;;;;4981121;28;20247;-86
2024/01/09 01:36:24;;;;;;;3.00;2.70;;;;;;;;;;5000907;28;20216;-87
2024/01/09 01:38:54;;;;;;;4.63;2.57;;;;;;;;;;5006217;28;20343;-87
2024/01/09 01:41:21;;;;;;;3.00;2.80;;;;;;;;;;5012934;28;20224;-87
2024/01/09 01:43:56;;;;;;;2.60;2.30;;;;;;;;;;4997441;28;20236;-87
2024/01/09 01:46:25;;;;;;;3.10;2.03;;;;;;;;;;4997012;28;20375;-86
2024/01/09 01:48:50;;;;;;;3.17;2.10;;;;;;;;;;5002163;28;20236;-87
2024/01/09 01:51:16;;;;;;;2.40;2.20;;;;;;;;;;4990069;28;20227;-86
2024/01/09 01:53:41;;;;;;;2.53;2.30;;;;;;;;;;5016094;28;20231;-86
2024/01/09 01:56:07;;;;;;;5.30;2.70;;;;;;;;;;4983163;28;20228;-86
2024/01/09 01:58:35;;;;;;;6.27;2.87;;;;;;;;;;4993061;28;20527;-87
2024/01/09 02:01:04;;;;;;;3.10;2.70;;;;;;;;;;4996980;28;20231;-87
2024/01/09 02:03:29;;;;;;;3.10;2.80;;;;;;;;;;4976946;28;20249;-86
2024/01/09 02:05:55;;;;;;;3.20;2.20;;;;;;;;;;4998505;28;20271;-87
2024/01/09 02:08:22;;;;;;;2.70;2.30;;;;;;;;;;4995365;28;20582;-87
2024/01/09 02:10:51;;;;;;;2.50;2.17;;;;;;;;;;4982207;28;20216;-86
2024/01/09 02:13:19;;;;;;;2.70;2.50;;;;;;;;;;5001448;28;20755;-87
2024/01/09 02:15:44;;;;;;;2.80;2.50;;;;;;;;;;4995026;28;20233;-87
2024/01/09 02:18:13;;;;;;;3.17;2.43;;;;;;;;;;5024492;28;20216;-86
2024/01/09 02:20:41;;;;;;;2.50;2.30;;;;;;;;;;4995800;28;20973;-85
2024/01/09 02:23:06;;;;;;;2.83;2.53;;;;;;;;;;5000792;28;20224;-86
2024/01/09 02:25:34;;;;;;;3.80;2.80;;;;;;;;;;5002788;28;20239;-86
2024/01/09 02:28:23;;;;;;;2.50;2.30;;;;;;;;;;4995519;28;20709;-85
2024/01/09 02:30:49;;;;;;;2.37;2.13;;;;;;;;;;5022182;28;20263;-85
2024/01/09 02:33:17;;;;;;;4.03;2.53;;;;;;;;;;4995493;28;20220;-86
2024/01/09 02:35:43;;;;;;;3.33;2.80;;;;;;;;;;4995514;28;20248;-86
2024/01/09 02:38:09;;;;;;;5.10;2.60;;;;;;;;;;5006668;28;20212;-86
2024/01/09 02:40:34;;;;;;;2.80;2.50;;;;;;;;;;5010920;28;20217;-86
2024/01/09 02:43:00;;;;;;;2.77;2.53;;;;;;;;;;5002389;28;20216;-86
2024/01/09 02:45:28;;;;;;;3.77;2.53;;;;;;;;;;5032439;28;20243;-86
2024/01/09 02:47:53;;;;;;;4.30;2.77;;;;;;;;;;4996403;28;20220;-86
2024/01/09 02:50:22;;;;;;;2.57;2.37;;;;;;;;;;4989814;28;20224;-87
2024/01/09 02:52:47;;;;;;;2.70;2.50;;;;;;;;;;4993027;28;20593;-86
2024/01/09 02:55:15;;;;;;;2.80;2.37;;;;;;;;;;5010877;28;20228;-85
2024/01/09 02:57:41;;;;;;;2.67;2.40;;;;;;;;;;5014495;28;20207;-86
2024/01/09 03:00:10;;;;;;;4.27;2.40;;;;;;;;;;5017495;28;20277;-86
2024/01/09 03:02:36;;;;;;;3.47;2.53;;;;;;;;;;4997149;28;20341;-85
2024/01/09 03:05:03;;;;;;;3.17;2.60;;;;;;;;;;5016430;28;20220;-84
2024/01/09 03:07:31;;;;;;;3.60;2.67;;;;;;;;;;4991458;28;20239;-86
2024/01/09 03:09:56;;;;;;;2.70;2.40;;;;;;;;;;4997897;28;20220;-86
2024/01/09 03:12:22;;;;;;;2.80;2.47;;;;;;;;;;4995566;28;20790;-86
2024/01/09 03:14:48;;;;;;;2.87;2.57;;;;;;;;;;4983838;28;20212;-85
2024/01/09 03:17:13;;;;;;;4.20;2.73;;;;;;;;;;4980006;28;20252;-86
2024/01/09 03:19:43;;;;;;;2.57;2.33;;;;;;;;;;4999882;28;20224;-87
2024/01/09 03:22:09;;;;;;;2.83;2.63;;;;;;;;;;4992427;28;20235;-86
2024/01/09 03:24:34;;;;;;;2.80;2.50;;;;;;;;;;5016940;28;20217;-85
2024/01/09 03:27:02;;;;;;;2.33;2.13;;;;;;;;;;5013029;28;20228;-88
2024/01/09 03:29:28;;;;;;;3.13;2.83;;;;;;;;;;4991773;28;20248;-88
2024/01/09 03:31:54;;;;;;;2.87;2.47;;;;;;;;;;5003092;28;20208;-86
2024/01/09 03:34:21;;;;;;;2.83;2.53;;;;;;;;;;4990759;28;20232;-86
2024/01/09 03:36:47;;;;;;;5.53;2.97;;;;;;;;;;4977697;28;20225;-86
2024/01/09 03:39:14;;;;;;;3.30;2.60;;;;;;;;;;4981434;28;20275;-85
2024/01/09 03:41:42;;;;;;;3.10;2.50;;;;;;;;;;4980964;28;20221;-86
2024/01/09 03:44:09;;;;;;;7.00;2.40;;;;;;;;;;5008775;28;20302;-87
2024/01/09 03:46:39;;;;;;;3.57;2.77;;;;;;;;;;4995651;28;20627;-86
2024/01/09 03:49:04;;;;;;;4.70;2.60;;;;;;;;;;4995141;28;20282;-86
2024/01/09 03:51:32;;;;;;;2.80;2.50;;;;;;;;;;4983748;28;20224;-86
2024/01/09 03:53:58;;;;;;;5.93;2.73;;;;;;;;;;4995757;28;20286;-86
2024/01/09 03:56:26;;;;;;;4.73;3.00;;;;;;;;;;5003693;28;20228;-87
2024/01/09 04:02:38;;;;;;;2.70;2.40;;;;;;;;;;5021749;28;20574;-87
2024/01/09 04:05:05;;;;;;;3.50;2.77;;;;;;;;;;4980803;28;20223;-85
2024/01/09 04:07:33;;;;;;;3.10;2.70;;;;;;;;;;4998175;28;20224;-85
2024/01/09 04:09:59;;;;;;;3.17;2.80;;;;;;;;;;4982026;28;20591;-87
2024/01/09 04:12:24;;;;;;;3.93;2.50;;;;;;;;;;4980889;28;20613;-87
2024/01/09 04:14:50;;;;;;;2.07;1.97;;;;;;;;;;4993132;28;20215;-87
2024/01/09 04:17:15;;;;;;;4.63;2.73;;;;;;;;;;4990289;28;20744;-86
2024/01/09 04:19:41;;;;;;;4.10;2.37;;;;;;;;;;4982164;28;20697;-86
2024/01/09 04:22:07;;;;;;;2.50;2.30;;;;;;;;;;5014764;28;20693;-86
2024/01/09 04:24:33;;;;;;;4.57;2.57;;;;;;;;;;5011848;28;20221;-86
2024/01/09 04:26:58;;;;;;;3.23;2.93;;;;;;;;;;4997961;28;20212;-87
2024/01/09 04:29:24;;;;;;;3.63;2.63;;;;;;;;;;4998671;28;20597;-88
2024/01/09 04:31:52;;;;;;;6.70;2.50;;;;;;;;;;4998818;28;20227;-88
2024/01/09 04:34:23;;;;;;;2.77;2.40;;;;;;;;;;5004660;28;20686;-86
2024/01/09 04:36:48;;;;;;;3.90;2.60;;;;;;;;;;5000645;28;20235;-89
2024/01/09 04:39:14;;;;;;;2.97;2.40;;;;;;;;;;4994681;28;20219;-87
2024/01/09 04:41:42;;;;;;;2.57;2.30;;;;;;;;;;5011820;28;20994;-77
2024/01/09 04:44:07;;;;;;;2.97;2.63;;;;;;;;;;5022393;28;21031;-78
2024/01/09 04:46:33;;;;;;;2.90;2.20;;;;;;;;;;5013180;28;20228;-78
2024/01/09 04:49:03;;;;;;;2.73;2.50;;;;;;;;;;4995541;28;20240;-78
2024/01/09 04:51:32;;;;;;;2.63;2.43;;;;;;;;;;4992944;28;21294;-79
2024/01/09 04:53:57;;;;;;;2.87;2.67;;;;;;;;;;5024576;28;20227;-78
2024/01/09 04:56:23;;;;;;;3.30;2.87;;;;;;;;;;5011462;28;20755;-78
2024/01/09 04:58:53;;;;;;;3.50;2.73;;;;;;;;;;5012365;28;20216;-78
2024/01/09 05:01:21;;;;;;;5.60;2.70;;;;;;;;;;4982655;28;20272;-78
2024/01/09 05:03:48;;;;;;;2.90;2.63;;;;;;;;;;4981687;28;20223;-78
2024/01/09 05:06:16;;;;;;;3.77;2.53;;;;;;;;;;5032750;28;20240;-77
2024/01/09 05:08:42;;;;;;;3.43;2.60;;;;;;;;;;5009276;28;20255;-77
2024/01/09 05:11:07;;;;;;;2.73;2.27;;;;;;;;;;4993512;28;20225;-78
2024/01/09 05:13:33;;;;;;;4.00;3.47;;;;;;;;;;4994657;28;20212;-78
2024/01/09 05:15:58;;;;;;;3.17;2.90;;;;;;;;;;4992918;28;20770;-78
2024/01/09 05:18:25;;;;;;;6.57;4.93;;;;;;;;;;4995455;28;20235;-78
2024/01/09 05:20:50;;;;;;;6.23;2.50;;;;;;;;;;4993403;28;20271;-78
2024/01/09 05:23:18;;;;;;;4.67;2.60;;;;;;;;;;4977749;28;20293;-78
2024/01/09 05:25:44;;;;;;;3.03;2.50;;;;;;;;;;5011477;28;20288;-78
2024/01/09 05:28:12;;;;;;;3.30;2.50;;;;;;;;;;5008676;28;20211;-77
2024/01/09 05:30:40;;;;;;;3.67;2.47;;;;;;;;;;4981614;28;20221;-76
2024/01/09 05:33:08;;;;;;;2.57;2.37;;;;;;;;;;5015722;28;20212;-77
2024/01/09 05:35:34;;;;;;;3.00;2.70;;;;;;;;;;5029781;28;20224;-77
2024/01/09 05:37:59;;;;;;;4.27;2.83;;;;;;;;;;5009156;28;20283;-78
2024/01/09 05:40:25;;;;;;;3.23;2.30;;;;;;;;;;5027092;28;20721;-78
2024/01/09 05:42:51;;;;;;;3.00;2.70;;;;;;;;;;4997564;28;20226;-79
2024/01/09 05:45:16;;;;;;;2.73;2.47;;;;;;;;;;5018119;28;20224;-78
2024/01/09 05:47:43;;;;;;;3.17;2.57;;;;;;;;;;4991201;28;20213;-78
2024/01/09 05:50:08;;;;;;;2.53;2.23;;;;;;;;;;4981599;28;20308;-78
2024/01/09 05:52:37;;;;;;;3.40;2.83;;;;;;;;;;5001583;28;20275;-77
2024/01/09 05:55:05;;;;;;;2.53;2.33;;;;;;;;;;5016664;28;20279;-79
2024/01/09 05:57:31;;;;;;;3.03;2.53;;;;;;;;;;4995227;28;20307;-78
2024/01/09 05:59:57;;;;;;;3.57;2.80;;;;;;;;;;4992003;28;20237;-79
2024/01/09 06:02:26;;;;;;;2.67;2.47;;;;;;;;;;5029921;28;20610;-78
2024/01/09 06:04:52;;;;;;;3.47;2.23;;;;;;;;;;5016674;28;20243;-79
2024/01/09 06:07:20;;;;;;;2.57;2.37;;;;;;;;;;5014026;28;20243;-79
2024/01/09 06:09:46;;;;;;;2.77;2.40;;;;;;;;;;4998161;28;20232;-79
2024/01/09 06:12:11;;;;;;;2.50;2.23;;;;;;;;;;5004955;28;20220;-77
2024/01/09 06:14:37;;;;;;;3.13;2.20;;;;;;;;;;5022094;28;20231;-78
2024/01/09 06:17:03;;;;;;;5.10;3.67;;;;;;;;;;5000888;28;20232;-79
2024/01/09 06:19:28;;;;;;;11.27;3.83;;;;;;;;;;4998683;28;20239;-79
2024/01/09 06:21:56;;;;;;;5.53;3.37;;;;;;;;;;5012602;28;20221;-78
2024/01/09 06:24:21;;;;;;;2.70;2.50;;;;;;;;;;5029861;28;20216;-77
2024/01/09 06:26:47;;;;;;;2.70;2.30;;;;;;;;;;5026250;28;20506;-77
2024/01/09 06:29:12;;;;;;;3.87;3.00;;;;;;;;;;5018520;28;20220;-78
2024/01/09 06:31:40;;;;;;;2.97;2.47;;;;;;;;;;4993081;28;20221;-78
2024/01/09 06:34:08;;;;;;;3.10;2.80;;;;;;;;;;5005507;28;20212;-78
2024/01/09 06:36:36;;;;;;;2.97;2.57;;;;;;;;;;4994270;28;20228;-78
2024/01/09 06:39:04;;;;;;;2.73;1.93;;;;;;;;;;5009885;28;20667;-78
2024/01/09 06:41:29;;;;;;;2.80;2.50;;;;;;;;;;4982165;28;20227;-78
2024/01/09 06:43:55;;;;;;;5.20;3.10;;;;;;;;;;5016782;28;20223;-79
2024/01/09 06:46:20;;;;;;;5.17;2.87;;;;;;;;;;4999834;28;20220;-78
2024/01/09 06:48:46;;;;;;;2.80;2.37;;;;;;;;;;4998358;28;20232;-79
2024/01/09 06:51:12;;;;;;;3.60;3.03;;;;;;;;;;4996438;28;20220;-79
2024/01/09 06:53:38;;;;;;;2.57;2.37;;;;;;;;;;5009447;28;20221;-79
2024/01/09 06:56:06;;;;;;;4.17;3.30;;;;;;;;;;5007059;28;20789;-78
2024/01/09 06:58:32;;;;;;;5.00;3.53;;;;;;;;;;5012674;28;20220;-79
2024/01/09 07:01:03;;;;;;;6.13;4.80;;;;;;;;;;5024487;28;20273;-79
2024/01/09 07:03:30;;;;;;;5.17;3.60;;;;;;;;;;4998761;28;20290;-78
2024/01/09 07:05:55;;;;;;;4.47;3.40;;;;;;;;;;5023733;28;20224;-77
2024/01/09 07:08:28;;;;;;;3.80;3.43;;;;;;;;;;5025758;28;20662;-78
2024/01/09 07:10:54;;;;;;;3.17;2.87;;;;;;;;;;5023497;28;20267;-79
2024/01/09 07:13:19;;;;;;;4.27;3.87;;;;;;;;;;5002802;28;20268;-78
2024/01/09 07:15:45;;;;;;;4.03;3.63;;;;;;;;;;4989995;28;20234;-78
2024/01/09 07:18:10;;;;;;;3.20;2.90;;;;;;;;;;4997471;28;20251;-79
2024/01/09 07:20:37;;;;;;;3.30;3.00;;;;;;;;;;5024386;28;20572;-78
2024/01/09 07:23:02;;;;;;;3.50;2.83;;;;;;;;;;5006676;28;20315;-79
2024/01/09 07:25:30;;;;;;;3.20;2.67;;;;;;;;;;4982913;28;20284;-78
2024/01/09 07:27:56;;;;;;;3.43;3.10;;;;;;;;;;5012390;28;20307;-79
2024/01/09 07:30:22;;;;;;;4.93;2.97;;;;;;;;;;4992961;28;20235;-79
2024/01/09 07:32:47;;;;;;;3.03;2.73;;;;;;;;;;5007911;28;20224;-80
2024/01/09 07:35:13;;;;;;;3.20;2.87;;;;;;;;;;5007415;28;20228;-79
2024/01/09 07:37:38;;;;;;;3.10;2.77;;;;;;;;;;4995782;28;20307;-78
2024/01/09 07:40:05;;;;;;;4.13;3.00;;;;;;;;;;5011477;28;20220;-79
2024/01/09 07:42:32;;;;;;;3.03;2.67;;;;;;;;;;5011708;28;20339;-79
2024/01/09 07:44:58;;;;;;;4.33;2.97;;;;;;;;;;5013206;28;20724;-78
2024/01/09 07:47:23;;;;;;;2.83;2.60;;;;;;;;;;5005348;28;20232;-78
2024/01/09 07:49:49;;;;;;;3.77;2.93;;;;;;;;;;5022709;28;20239;-79
2024/01/09 07:52:19;;;;;;;3.10;2.70;;;;;;;;;;5023274;28;20213;-78
2024/01/09 07:54:50;;;;;;;4.73;2.70;;;;;;;;;;5023554;28;20231;-77
2024/01/09 07:57:15;;;;;;;3.23;2.90;;;;;;;;;;4979221;28;20289;-78
2024/01/09 07:59:42;;;;;;;3.50;2.63;;;;;;;;;;5013042;28;20239;-79
2024/01/09 08:02:09;;;;;;;4.13;2.80;;;;;;;;;;4990492;28;20233;-78
2024/01/09 08:04:35;;;;;;;4.63;3.30;;;;;;;;;;5024087;28;20219;-78
2024/01/09 08:07:00;;;;;;;3.87;3.10;;;;;;;;;;4980352;28;20232;-79
2024/01/09 08:09:28;;;;;;;3.70;2.63;;;;;;;;;;4991443;28;20239;-79
2024/01/09 08:11:54;;;;;;;3.37;2.63;;;;;;;;;;5002529;28;20232;-79
2024/01/09 08:14:19;;;;;;;3.37;2.90;;;;;;;;;;5015577;28;20235;-79
2024/01/09 08:16:49;;;;;;;3.13;2.83;;;;;;;;;;4989026;28;20275;-78
2024/01/09 08:19:18;;;;;;;3.07;2.63;;;;;;;;;;4998069;28;20974;-79
2024/01/09 08:21:43;;;;;;;2.77;2.47;;;;;;;;;;5008305;28;20251;-79
2024/01/09 08:24:18;;;;;;;3.27;2.83;;;;;;;;;;4976183;28;20220;-79
2024/01/09 08:26:48;;;;;;;3.40;3.10;;;;;;;;;;4979603;28;20310;-78
2024/01/09 08:29:16;;;;;;;3.70;2.90;;;;;;;;;;4978841;28;20217;-79
2024/01/09 08:31:45;;;;;;;3.27;2.97;;;;;;;;;;4996712;28;20267;-79
2024/01/09 08:34:11;;;;;;;3.27;2.90;;;;;;;;;;5023028;28;20235;-78
2024/01/09 08:36:42;;;;;;;3.87;3.00;;;;;;;;;;5009912;28;20228;-79
2024/01/09 08:39:07;;;;;;;2.90;2.67;;;;;;;;;;5024171;28;20225;-80
2024/01/09 08:41:36;;;;;;;3.67;3.00;;;;;;;;;;4980921;28;20231;-78
2024/01/09 08:44:04;;;;;;;3.43;2.90;;;;;;;;;;5003130;28;20716;-79
2024/01/09 08:46:29;;;;;;;2.90;2.70;;;;;;;;;;5026494;28;20298;-80
2024/01/09 08:48:55;;;;;;;3.40;3.10;;;;;;;;;;4978668;28;20228;-79
2024/01/09 08:51:22;;;;;;;3.30;3.00;;;;;;;;;;5015072;28;20227;-80
2024/01/09 08:53:50;;;;;;;3.67;3.37;;;;;;;;;;5018013;28;20274;-79
2024/01/09 08:56:16;;;;;;;3.97;3.67;;;;;;;;;;4995412;28;20351;-78
2024/01/09 08:58:44;;;;;;;4.80;2.97;;;;;;;;;;5018751;28;20223;-78
2024/01/09 09:01:12;;;;;;;4.33;3.93;;;;;;;;;;4994411;28;20220;-78
2024/01/09 09:03:37;;;;;;;3.77;3.40;;;;;;;;;;4987510;28;20227;-78
2024/01/09 09:06:03;;;;;;;4.60;2.67;;;;;;;;;;5010706;28;20232;-78
2024/01/09 09:08:31;;;;;;;5.10;2.83;;;;;;;;;;5027124;28;20217;-77
2024/01/09 09:10:56;;;;;;;2.93;2.67;;;;;;;;;;4997443;28;20220;-78
2024/01/09 09:13:22;;;;;;;3.30;3.00;;;;;;;;;;5034885;28;20216;-78
2024/01/09 09:15:49;;;;;;;3.53;3.23;;;;;;;;;;4987677;28;20235;-78
2024/01/09 09:18:16;;;;;;;2.70;2.50;;;;;;;;;;5021647;28;20235;-78
2024/01/09 09:20:42;;;;;;;3.87;2.70;;;;;;;;;;5023484;28;20286;-78
2024/01/09 09:23:08;;;;;;;3.83;2.80;;;;;;;;;;4979918;28;20224;-79
2024/01/09 09:25:36;;;;;;;2.83;2.60;;;;;;;;;;5019045;28;20228;-78
2024/01/09 09:28:01;;;;;;;4.37;3.17;;;;;;;;;;4978541;28;20227;-78
2024/01/09 09:30:27;;;;;;;3.43;3.10;;;;;;;;;;5015096;28;20239;-78
2024/01/09 09:32:58;;;;;;;3.53;3.13;;;;;;;;;;5017506;28;20223;-78
2024/01/09 09:35:26;;;;;;;6.33;3.50;;;;;;;;;;4995419;28;20232;-78
2024/01/09 09:37:54;;;;;;;4.00;3.37;;;;;;;;;;4998244;28;20220;-78
2024/01/09 09:40:19;;;;;;;5.97;3.63;;;;;;;;;;4988363;28;20608;-78
2024/01/09 09:42:52;;;;;;;3.20;2.90;;;;;;;;;;4990993;28;20216;-78
2024/01/09 09:45:20;;;;;;;2.73;2.53;;;;;;;;;;4993900;28;20235;-78
2024/01/09 09:47:46;;;;;;;2.73;2.53;;;;;;;;;;4993861;28;20220;-78
2024/01/09 09:50:11;;;;;;;4.17;3.27;;;;;;;;;;5011220;28;20303;-78
2024/01/09 09:52:41;;;;;;;3.03;2.73;;;;;;;;;;4979535;28;20216;-78
2024/01/09 09:55:08;;;;;;;2.50;2.30;;;;;;;;;;5001688;28;20243;-77
2024/01/09 09:57:34;;;;;;;2.53;2.33;;;;;;;;;;5010640;28;20268;-77
2024/01/09 09:59:59;;;;;;;4.00;3.07;;;;;;;;;;4989397;28;20737;-78
2024/01/09 10:02:25;;;;;;;2.67;2.47;;;;;;;;;;5004410;28;20230;-78
2024/01/09 10:04:53;;;;;;;2.57;2.37;;;;;;;;;;5007053;28;20212;-78
2024/01/09 10:07:24;;;;;;;3.77;2.80;;;;;;;;;;5006008;28;20213;-78
2024/01/09 10:09:52;;;;;;;3.20;2.60;;;;;;;;;;4996971;28;20238;-78
2024/01/09 10:12:24;;;;;;;5.10;2.33;;;;;;;;;;5013560;28;20231;-78
2024/01/09 10:15:12;;;;;;;2.47;2.13;;;;;;;;;;4992091;28;20216;-78
2024/01/09 10:17:41;;;;;;;2.47;2.20;;;;;;;;;;5017777;28;20237;-78
2024/01/09 10:20:16;;;;;;;1.93;1.77;;;;;;;;;;4987827;28;20216;-77
2024/01/09 10:22:42;;;;;;;2.40;2.20;;;;;;;;;;5009572;28;20232;-78
2024/01/09 10:25:10;;;;;;;3.50;2.20;;;;;;;;;;4990134;28;20555;-78
2024/01/09 10:27:36;;;;;;;3.00;2.57;;;;;;;;;;5002013;28;20647;-78
2024/01/09 10:30:05;;;;;;;2.33;2.13;;;;;;;;;;4986123;28;20239;-77
2024/01/09 10:32:36;;;;;;;4.00;2.43;;;;;;;;;;5017434;28;20675;-78
2024/01/09 10:35:05;;;;;;;2.30;2.10;;;;;;;;;;4984736;28;20220;-78
2024/01/09 10:37:31;;;;;;;3.20;2.60;;;;;;;;;;5000985;28;20966;-77
2024/01/09 10:39:58;;;;;;;2.17;2.00;;;;;;;;;;4985339;28;20255;-78
2024/01/09 10:42:30;;;;;;;5.70;2.13;;;;;;;;;;4989467;28;20753;-77
2024/01/09 10:45:02;;;;;;;2.87;2.57;;;;;;;;;;4989952;28;20251;-78
2024/01/09 10:47:31;;;;;;;2.50;2.30;;;;;;;;;;5010288;28;20232;-77
2024/01/09 10:50:00;;;;;;;2.27;2.07;;;;;;;;;;5017706;28;20224;-77
2024/01/09 10:52:25;;;;;;;3.03;2.00;;;;;;;;;;5003621;28;20308;-77
2024/01/09 10:54:51;;;;;;;3.63;2.10;;;;;;;;;;4989521;28;20209;-78
2024/01/09 10:57:16;;;;;;;2.80;1.83;;;;;;;;;;4998381;28;20232;-78
2024/01/09 10:59:45;;;;;;;2.53;1.97;;;;;;;;;;4993405;28;20689;-79
2024/01/09 11:02:25;;;;;;;2.03;1.63;;;;;;;;;;5009640;28;20267;-78
2024/01/09 11:04:50;;;;;;;2.03;1.70;;;;;;;;;;5012893;28;20285;-77
2024/01/09 11:07:16;;;;;;;1.90;1.80;;;;;;;;;;4987233;28;20225;-78
2024/01/09 11:09:43;;;;;;;2.70;1.97;;;;;;;;;;4997206;28;20720;-77
2024/01/09 11:12:17;;;;;;;2.27;1.90;;;;;;;;;;4992074;28;20215;-77
2024/01/09 11:14:46;;;;;;;1.80;1.70;;;;;;;;;;4998186;28;20231;-78
2024/01/09 11:17:12;;;;;;;2.23;1.90;;;;;;;;;;5011340;28;20223;-76
2024/01/09 11:19:42;;;;;;;2.10;1.70;;;;;;;;;;4989786;28;20598;-78
2024/01/09 11:22:20;;;;;;;2.17;1.97;;;;;;;;;;4983209;28;20213;-77
2024/01/09 11:24:49;;;;;;;2.87;1.80;;;;;;;;;;4983167;28;20277;-78
2024/01/09 11:27:17;;;;;;;2.00;1.73;;;;;;;;;;4987887;28;20220;-78
2024/01/09 11:29:53;;;;;;;2.47;1.93;;;;;;;;;;5015552;28;20223;-78
2024/01/09 11:32:19;;;;;;;2.03;1.80;;;;;;;;;;4990109;28;20232;-77
2024/01/09 11:34:47;;;;;;;2.20;2.00;;;;;;;;;;4972139;28;20216;-77
2024/01/09 11:37:14;;;;;;;2.90;1.80;;;;;;;;;;4986376;28;20307;-77
2024/01/09 11:39:40;;;;;;;3.93;2.00;;;;;;;;;;4996247;28;20265;-77
2024/01/09 11:42:06;;;;;;;2.13;1.93;;;;;;;;;;5001078;28;20235;-78
2024/01/09 11:44:31;;;;;;;2.03;1.60;;;;;;;;;;5000253;28;20219;-77
2024/01/09 11:46:57;;;;;;;2.83;2.33;;;;;;;;;;5001613;28;20231;-77
2024/01/09 11:49:22;;;;;;;2.70;1.80;;;;;;;;;;4983086;28;20236;-77
2024/01/09 11:51:48;;;;;;;2.17;1.70;;;;;;;;;;4989910;28;20216;-77
2024/01/09 11:54:13;;;;;;;2.60;1.80;;;;;;;;;;5015894;28;20231;-77
2024/01/09 11:56:41;;;;;;;1.93;1.80;;;;;;;;;;4988897;28;20220;-77
2024/01/09 11:59:07;;;;;;;2.13;2.03;;;;;;;;;;4985223;28;20336;-78
2024/01/09 12:01:35;;;;;;;1.90;1.80;;;;;;;;;;5001523;28;20322;-77
2024/01/09 12:04:01;;;;;;;2.30;1.77;;;;;;;;;;4984064;28;20999;-78
2024/01/09 12:06:29;;;;;;;2.57;1.70;;;;;;;;;;4998889;28;20224;-77
2024/01/09 12:08:57;;;;;;;1.60;1.40;;;;;;;;;;4997023;28;20229;-78
2024/01/09 12:11:25;;;;;;;1.90;1.60;;;;;;;;;;5003009;28;20237;-77
2024/01/09 12:14:03;;;;;;;1.53;1.43;;;;;;;;;;4984173;28;20307;-77
2024/01/09 12:16:29;;;;;;;2.33;1.67;;;;;;;;;;4973506;28;20229;-77
2024/01/09 12:18:57;;;;;;;1.70;1.50;;;;;;;;;;4985964;28;20216;-77
2024/01/09 12:21:26;;;;;;;1.80;1.70;;;;;;;;;;5014972;28;20231;-77
2024/01/09 12:23:53;;;;;;;1.50;1.40;;;;;;;;;;4998204;28;20223;-77
2024/01/09 12:26:21;;;;;;;1.97;1.60;;;;;;;;;;5015554;28;20655;-78
2024/01/09 12:28:46;;;;;;;2.53;1.73;;;;;;;;;;4995735;28;20495;-77
2024/01/09 12:31:17;;;;;;;2.00;1.80;;;;;;;;;;4977231;28;20287;-78
2024/01/09 12:33:46;;;;;;;2.53;2.33;;;;;;;;;;4993074;28;20693;-76
2024/01/09 12:36:14;;;;;;;2.20;1.90;;;;;;;;;;5008241;28;20228;-77
2024/01/09 12:38:39;;;;;;;3.07;1.67;;;;;;;;;;4988162;28;20220;-77
2024/01/09 12:41:05;;;;;;;1.73;1.63;;;;;;;;;;4988954;28;20243;-77
2024/01/09 12:43:31;;;;;;;1.73;1.57;;;;;;;;;;4983387;28;20274;-79
2024/01/09 12:45:56;;;;;;;2.50;1.70;;;;;;;;;;5006133;28;20224;-77
2024/01/09 12:48:25;;;;;;;2.60;2.40;;;;;;;;;;5023430;28;20220;-77
2024/01/09 12:51:00;;;;;;;2.40;1.97;;;;;;;;;;5000724;28;20234;-77
2024/01/09 12:53:29;;;;;;;2.07;1.60;;;;;;;;;;5001733;28;20324;-77
2024/01/09 12:56:05;;;;;;;1.53;1.43;;;;;;;;;;5021137;28;20220;-77
2024/01/09 12:58:34;;;;;;;1.90;1.67;;;;;;;;;;5009484;28;20737;-77
2024/01/09 13:01:03;;;;;;;1.43;1.33;;;;;;;;;;5004062;28;20753;-77
2024/01/09 13:03:28;;;;;;;1.47;1.37;;;;;;;;;;4973082;28;20693;-77
2024/01/09 13:05:54;;;;;;;2.77;1.77;;;;;;;;;;4970600;28;20223;-77
2024/01/09 13:08:22;;;;;;;2.17;1.70;;;;;;;;;;4980204;28;20259;-77
2024/01/09 13:10:47;;;;;;;1.97;1.83;;;;;;;;;;5004257;28;20220;-77
2024/01/09 13:13:13;;;;;;;1.57;1.47;;;;;;;;;;5029392;28;20227;-78
2024/01/09 13:15:41;;;;;;;2.07;1.70;;;;;;;;;;5000641;28;20216;-76
2024/01/09 13:18:10;;;;;;;2.60;1.33;;;;;;;;;;5000544;28;20262;-77
2024/01/09 13:20:35;;;;;;;1.23;1.13;;;;;;;;;;5019201;28;20219;-77
2024/01/09 13:23:01;;;;;;;1.43;1.33;;;;;;;;;;4999892;28;20228;-76
2024/01/09 13:25:26;;;;;;;3.50;1.40;;;;;;;;;;4970574;28;20231;-77
2024/01/09 13:27:52;;;;;;;2.23;1.43;;;;;;;;;;5016955;28;20819;-78
2024/01/09 13:30:19;;;;;;;1.70;1.60;;;;;;;;;;5007132;28;20240;-77
2024/01/09 13:32:47;;;;;;;2.50;1.37;;;;;;;;;;5008278;28;20231;-76
2024/01/09 13:35:15;;;;;;;1.50;1.40;;;;;;;;;;5023365;28;20220;-76
2024/01/09 13:37:42;;;;;;;1.40;1.30;;;;;;;;;;5008448;28;20238;-77
2024/01/09 13:40:10;;;;;;;2.00;1.60;;;;;;;;;;4986726;28;20227;-78
2024/01/09 13:42:38;;;;;;;1.37;1.27;;;;;;;;;;4987392;28;20242;-77
2024/01/09 13:45:04;;;;;;;1.90;1.37;;;;;;;;;;4987475;28;20584;-76
2024/01/09 13:47:29;;;;;;;1.63;1.53;;;;;;;;;;5008167;28;20282;-76
2024/01/09 13:49:55;;;;;;;1.50;1.40;;;;;;;;;;4983589;28;20220;-78
2024/01/09 13:52:20;;;;;;;5.73;2.50;;;;;;;;;;4962207;28;20227;-77
2024/01/09 13:54:46;;;;;;;1.70;1.60;;;;;;;;;;4982750;28;20235;-77
2024/01/09 13:57:14;;;;;;;1.40;1.30;;;;;;;;;;5004793;28;21042;-77
2024/01/09 13:59:40;;;;;;;2.30;1.87;;;;;;;;;;4988785;28;20307;-76
2024/01/09 14:02:08;;;;;;;1.73;1.63;;;;;;;;;;5015389;28;20367;-77
2024/01/09 14:04:34;;;;;;;2.00;1.80;;;;;;;;;;5000674;28;20231;-77
2024/01/09 14:06:59;;;;;;;1.83;1.40;;;;;;;;;;5013559;28;20273;-77
2024/01/09 14:09:27;;;;;;;1.73;1.63;;;;;;;;;;4991025;28;20246;-77
2024/01/09 14:11:52;;;;;;;3.90;1.40;;;;;;;;;;4987257;28;20284;-76
2024/01/09 14:14:22;;;;;;;1.57;1.47;;;;;;;;;;5015557;28;20677;-77
2024/01/09 14:16:50;;;;;;;1.60;1.50;;;;;;;;;;5002126;28;20223;-77
2024/01/09 14:19:17;;;;;;;1.77;1.67;;;;;;;;;;5002992;28;20225;-77
2024/01/09 14:21:45;;;;;;;2.10;1.80;;;;;;;;;;5002182;28;20422;-77
2024/01/09 14:24:13;;;;;;;1.57;1.47;;;;;;;;;;5016286;28;20212;-77
2024/01/09 14:26:47;;;;;;;1.40;1.30;;;;;;;;;;5006721;28;20243;-77
2024/01/09 14:29:12;;;;;;;2.33;1.47;;;;;;;;;;5000777;28;20600;-77
2024/01/09 14:31:38;;;;;;;1.33;1.23;;;;;;;;;;4984571;28;20216;-77
2024/01/09 14:34:03;;;;;;;1.60;1.50;;;;;;;;;;4983322;28;20225;-76
2024/01/09 14:36:32;;;;;;;1.60;1.50;;;;;;;;;;5017070;28;20248;-78
2024/01/09 14:39:00;;;;;;;1.93;1.70;;;;;;;;;;5013659;28;20218;-77
2024/01/09 14:41:26;;;;;;;4.00;2.30;;;;;;;;;;5019977;28;20224;-77
2024/01/09 14:43:54;;;;;;;2.30;2.10;;;;;;;;;;5000980;28;20227;-77
2024/01/09 14:46:19;;;;;;;3.40;3.10;;;;;;;;;;5015654;28;20226;-77